sensor_id;sensor_type;location;lat;lon;timestamp;pressure;altitude;pressure_sealevel;temperature;humidity
51239;BME280;38154;47.548;18.828;2023-03-22T00:01:29;98670.00;;;8.13;98.38
51239;BME280;38154;47.548;18.828;2023-03-22T00:03:57;98669.13;;;8.16;98.38
51239;BME280;38154;47.548;18.828;2023-03-22T00:06:23;98671.81;;;8.24;98.98
51239;BME280;38154;47.548;18.828;2023-03-22T00:08:51;98661.38;;;8.14;99.62
51239;BME280;38154;47.548;18.828;2023-03-22T00:11:21;98656.28;;;8.27;100.00
51239;BME280;38154;47.548;18.828;2023-03-22T00:13:48;98663.56;;;8.71;99.30
51239;BME280;38154;47.548;18.828;2023-03-22T00:16:17;98661.13;;;8.94;97.45
51239;BME280;38154;47.548;18.828;2023-03-22T00:18:43;98661.19;;;9.03;96.48
51239;BME280;38154;47.548;18.828;2023-03-22T00:21:12;98659.37;;;8.96;97.06
51239;BME280;38154;47.548;18.828;2023-03-22T00:23:39;98656.88;;;9.08;97.77
51239;BME280;38154;47.548;18.828;2023-03-22T00:26:06;98660.34;;;9.09;97.62
51239;BME280;38154;47.548;18.828;2023-03-22T00:28:32;98658.56;;;9.02;98.10
51239;BME280;38154;47.548;18.828;2023-03-22T00:30:59;98651.59;;;8.91;98.49
51239;BME280;38154;47.548;18.828;2023-03-22T00:33:27;98659.28;;;8.81;97.90
51239;BME280;38154;47.548;18.828;2023-03-22T00:35:57;98652.16;;;8.52;98.19
51239;BME280;38154;47.548;18.828;2023-03-22T00:38:23;98648.50;;;8.30;100.00
51239;BME280;38154;47.548;18.828;2023-03-22T00:40:49;98647.44;;;8.08;100.00
51239;BME280;38154;47.548;18.828;2023-03-22T00:43:14;98642.06;;;7.86;100.00
51239;BME280;38154;47.548;18.828;2023-03-22T00:45:41;98638.34;;;7.61;100.00
51239;BME280;38154;47.548;18.828;2023-03-22T00:48:09;98638.16;;;7.44;100.00
51239;BME280;38154;47.548;18.828;2023-03-22T00:50:37;98650.81;;;7.21;100.00
51239;BME280;38154;47.548;18.828;2023-03-22T00:53:03;98645.28;;;6.95;100.00
51239;BME280;38154;47.548;18.828;2023-03-22T00:55:30;98646.75;;;6.76;100.00
51239;BME280;38154;47.548;18.828;2023-03-22T00:57:56;98651.37;;;6.39;100.00
51239;BME280;38154;47.548;18.828;2023-03-22T01:00:22;98643.25;;;6.16;100.00
51239;BME280;38154;47.548;18.828;2023-03-22T01:02:48;98649.00;;;5.99;100.00
51239;BME280;38154;47.548;18.828;2023-03-22T01:05:14;98652.19;;;5.87;100.00
51239;BME280;38154;47.548;18.828;2023-03-22T01:07:41;98652.03;;;5.78;100.00
51239;BME280;38154;47.548;18.828;2023-03-22T01:10:08;98648.44;;;5.71;100.00
51239;BME280;38154;47.548;18.828;2023-03-22T01:12:34;98645.09;;;5.75;100.00
51239;BME280;38154;47.548;18.828;2023-03-22T01:15:00;98646.06;;;5.82;100.00
51239;BME280;38154;47.548;18.828;2023-03-22T01:17:26;98641.72;;;5.81;100.00
51239;BME280;38154;47.548;18.828;2023-03-22T01:19:52;98650.81;;;5.59;100.00
51239;BME280;38154;47.548;18.828;2023-03-22T01:22:18;98647.94;;;5.44;100.00
51239;BME280;38154;47.548;18.828;2023-03-22T01:24:44;98647.09;;;5.46;100.00
51239;BME280;38154;47.548;18.828;2023-03-22T01:27:10;98644.37;;;5.38;100.00
51239;BME280;38154;47.548;18.828;2023-03-22T01:29:36;98645.75;;;5.19;100.00
51239;BME280;38154;47.548;18.828;2023-03-22T01:32:02;98642.03;;;5.07;100.00
51239;BME280;38154;47.548;18.828;2023-03-22T01:34:28;98649.50;;;4.94;100.00
51239;BME280;38154;47.548;18.828;2023-03-22T01:36:55;98646.69;;;4.83;100.00
51239;BME280;38154;47.548;18.828;2023-03-22T01:39:21;98649.69;;;5.04;100.00
51239;BME280;38154;47.548;18.828;2023-03-22T01:41:47;98648.97;;;5.11;100.00
51239;BME280;38154;47.548;18.828;2023-03-22T01:44:21;98649.88;;;5.11;100.00
51239;BME280;38154;47.548;18.828;2023-03-22T01:46:50;98656.41;;;5.36;100.00
51239;BME280;38154;47.548;18.828;2023-03-22T01:49:23;98651.06;;;5.27;100.00
51239;BME280;38154;47.548;18.828;2023-03-22T01:51:52;98653.50;;;5.19;100.00
51239;BME280;38154;47.548;18.828;2023-03-22T01:54:34;98657.53;;;5.07;100.00
51239;BME280;38154;47.548;18.828;2023-03-22T01:57:01;98656.38;;;4.94;100.00
51239;BME280;38154;47.548;18.828;2023-03-22T01:59:28;98658.69;;;4.81;100.00
51239;BME280;38154;47.548;18.828;2023-03-22T02:01:55;98646.53;;;4.77;100.00
51239;BME280;38154;47.548;18.828;2023-03-22T02:04:26;98644.00;;;4.79;100.00
51239;BME280;38154;47.548;18.828;2023-03-22T02:07:05;98648.12;;;4.71;100.00
51239;BME280;38154;47.548;18.828;2023-03-22T02:09:40;98655.16;;;4.76;100.00
51239;BME280;38154;47.548;18.828;2023-03-22T02:42:01;98646.78;;;6.77;100.00
51239;BME280;38154;47.548;18.828;2023-03-22T02:44:40;98645.00;;;7.42;100.00
51239;BME280;38154;47.548;18.828;2023-03-22T02:47:31;98646.44;;;7.93;100.00
51239;BME280;38154;47.548;18.828;2023-03-22T02:50:48;98657.88;;;8.15;100.00
51239;BME280;38154;47.548;18.828;2023-03-22T02:53:15;98655.53;;;8.42;100.00
51239;BME280;38154;47.548;18.828;2023-03-22T02:55:50;98648.72;;;8.51;100.00
51239;BME280;38154;47.548;18.828;2023-03-22T02:58:25;98651.37;;;8.64;100.00
51239;BME280;38154;47.548;18.828;2023-03-22T03:00:59;98647.16;;;8.78;100.00
51239;BME280;38154;47.548;18.828;2023-03-22T03:03:27;98647.16;;;8.83;100.00
51239;BME280;38154;47.548;18.828;2023-03-22T03:06:01;98661.94;;;8.87;100.00
51239;BME280;38154;47.548;18.828;2023-03-22T03:08:31;98668.03;;;8.90;100.00
51239;BME280;38154;47.548;18.828;2023-03-22T03:10:57;98683.88;;;8.15;100.00
51239;BME280;38154;47.548;18.828;2023-03-22T03:13:23;98678.12;;;7.61;100.00
51239;BME280;38154;47.548;18.828;2023-03-22T03:15:52;98680.34;;;7.32;100.00
51239;BME280;38154;47.548;18.828;2023-03-22T03:18:41;98679.97;;;7.03;100.00
51239;BME280;38154;47.548;18.828;2023-03-22T03:29:22;98686.00;;;7.02;100.00
51239;BME280;38154;47.548;18.828;2023-03-22T03:31:56;98693.56;;;6.88;100.00
51239;BME280;38154;47.548;18.828;2023-03-22T03:34:28;98696.75;;;6.70;100.00
51239;BME280;38154;47.548;18.828;2023-03-22T03:37:04;98695.59;;;6.51;100.00
51239;BME280;38154;47.548;18.828;2023-03-22T03:39:38;98691.22;;;6.48;100.00
51239;BME280;38154;47.548;18.828;2023-03-22T03:42:06;98678.88;;;6.88;100.00
51239;BME280;38154;47.548;18.828;2023-03-22T03:44:37;98675.56;;;6.96;100.00
51239;BME280;38154;47.548;18.828;2023-03-22T03:47:04;98667.72;;;6.93;100.00
51239;BME280;38154;47.548;18.828;2023-03-22T03:49:32;98685.81;;;6.88;100.00
51239;BME280;38154;47.548;18.828;2023-03-22T03:51:58;98695.19;;;6.81;100.00
51239;BME280;38154;47.548;18.828;2023-03-22T03:54:24;98696.72;;;6.68;100.00
51239;BME280;38154;47.548;18.828;2023-03-22T03:56:50;98704.22;;;6.52;100.00
51239;BME280;38154;47.548;18.828;2023-03-22T03:59:17;98701.50;;;6.42;100.00
51239;BME280;38154;47.548;18.828;2023-03-22T04:01:44;98699.84;;;6.46;100.00
51239;BME280;38154;47.548;18.828;2023-03-22T04:04:22;98712.22;;;6.64;100.00
51239;BME280;38154;47.548;18.828;2023-03-22T04:06:55;98701.91;;;6.67;100.00
51239;BME280;38154;47.548;18.828;2023-03-22T04:09:26;98703.25;;;6.45;100.00
51239;BME280;38154;47.548;18.828;2023-03-22T04:11:53;98698.63;;;6.24;100.00
51239;BME280;38154;47.548;18.828;2023-03-22T04:14:20;98702.66;;;6.09;100.00
51239;BME280;38154;47.548;18.828;2023-03-22T04:16:46;98698.16;;;5.99;100.00
51239;BME280;38154;47.548;18.828;2023-03-22T04:19:12;98700.69;;;5.96;100.00
51239;BME280;38154;47.548;18.828;2023-03-22T04:21:38;98697.28;;;5.97;100.00
51239;BME280;38154;47.548;18.828;2023-03-22T04:24:04;98693.31;;;6.18;100.00
51239;BME280;38154;47.548;18.828;2023-03-22T04:26:31;98693.50;;;6.30;100.00
51239;BME280;38154;47.548;18.828;2023-03-22T04:28:57;98702.28;;;6.38;100.00
51239;BME280;38154;47.548;18.828;2023-03-22T04:31:24;98700.81;;;6.02;100.00
51239;BME280;38154;47.548;18.828;2023-03-22T04:33:50;98693.16;;;5.64;100.00
51239;BME280;38154;47.548;18.828;2023-03-22T04:36:21;98696.97;;;5.39;100.00
51239;BME280;38154;47.548;18.828;2023-03-22T04:38:47;98695.69;;;5.18;100.00
51239;BME280;38154;47.548;18.828;2023-03-22T04:41:13;98705.91;;;5.14;100.00
51239;BME280;38154;47.548;18.828;2023-03-22T04:43:39;98703.78;;;4.96;100.00
51239;BME280;38154;47.548;18.828;2023-03-22T04:46:05;98704.38;;;4.84;100.00
51239;BME280;38154;47.548;18.828;2023-03-22T04:48:36;98705.09;;;4.77;100.00
51239;BME280;38154;47.548;18.828;2023-03-22T04:51:04;98709.59;;;4.86;100.00
51239;BME280;38154;47.548;18.828;2023-03-22T04:53:31;98695.06;;;4.91;100.00
51239;BME280;38154;47.548;18.828;2023-03-22T04:55:57;98691.72;;;4.95;100.00
51239;BME280;38154;47.548;18.828;2023-03-22T04:58:24;98698.00;;;5.08;100.00
51239;BME280;38154;47.548;18.828;2023-03-22T05:00:51;98703.56;;;5.25;100.00
51239;BME280;38154;47.548;18.828;2023-03-22T05:03:19;98692.66;;;5.39;100.00
51239;BME280;38154;47.548;18.828;2023-03-22T05:05:49;98700.13;;;5.67;100.00
51239;BME280;38154;47.548;18.828;2023-03-22T05:08:15;98704.91;;;5.92;100.00
51239;BME280;38154;47.548;18.828;2023-03-22T05:10:41;98721.53;;;6.02;100.00
51239;BME280;38154;47.548;18.828;2023-03-22T05:13:07;98719.41;;;6.30;100.00
51239;BME280;38154;47.548;18.828;2023-03-22T05:15:33;98721.97;;;6.27;100.00
51239;BME280;38154;47.548;18.828;2023-03-22T05:17:59;98714.16;;;6.24;100.00
51239;BME280;38154;47.548;18.828;2023-03-22T05:20:25;98717.91;;;6.43;100.00
51239;BME280;38154;47.548;18.828;2023-03-22T05:22:50;98724.25;;;6.60;100.00
51239;BME280;38154;47.548;18.828;2023-03-22T05:25:21;98715.00;;;6.76;100.00
51239;BME280;38154;47.548;18.828;2023-03-22T05:27:47;98718.22;;;7.19;100.00
51239;BME280;38154;47.548;18.828;2023-03-22T05:30:19;98722.72;;;8.05;100.00
51239;BME280;38154;47.548;18.828;2023-03-22T05:32:45;98712.75;;;8.48;100.00
51239;BME280;38154;47.548;18.828;2023-03-22T05:35:12;98714.63;;;8.60;100.00
51239;BME280;38154;47.548;18.828;2023-03-22T05:37:38;98714.47;;;8.44;100.00
51239;BME280;38154;47.548;18.828;2023-03-22T05:40:05;98718.03;;;8.56;100.00
51239;BME280;38154;47.548;18.828;2023-03-22T05:42:34;98727.69;;;8.70;100.00
51239;BME280;38154;47.548;18.828;2023-03-22T05:45:01;98725.19;;;8.84;100.00
51239;BME280;38154;47.548;18.828;2023-03-22T05:47:27;98732.19;;;8.95;100.00
51239;BME280;38154;47.548;18.828;2023-03-22T05:49:53;98726.19;;;9.02;100.00
51239;BME280;38154;47.548;18.828;2023-03-22T05:52:19;98729.09;;;9.63;100.00
51239;BME280;38154;47.548;18.828;2023-03-22T05:54:45;98737.03;;;9.88;100.00
51239;BME280;38154;47.548;18.828;2023-03-22T05:57:11;98735.25;;;9.78;100.00
51239;BME280;38154;47.548;18.828;2023-03-22T05:59:37;98734.31;;;9.63;100.00
51239;BME280;38154;47.548;18.828;2023-03-22T06:02:03;98741.22;;;9.54;100.00
51239;BME280;38154;47.548;18.828;2023-03-22T06:04:29;98739.47;;;9.53;100.00
51239;BME280;38154;47.548;18.828;2023-03-22T06:06:54;98743.87;;;9.68;100.00
51239;BME280;38154;47.548;18.828;2023-03-22T06:09:21;98747.34;;;9.65;100.00
51239;BME280;38154;47.548;18.828;2023-03-22T06:11:47;98750.91;;;9.90;100.00
51239;BME280;38154;47.548;18.828;2023-03-22T06:14:13;98755.28;;;9.96;100.00
51239;BME280;38154;47.548;18.828;2023-03-22T06:16:38;98755.25;;;9.88;100.00
51239;BME280;38154;47.548;18.828;2023-03-22T06:19:05;98747.41;;;9.83;100.00
51239;BME280;38154;47.548;18.828;2023-03-22T06:21:31;98751.81;;;9.92;100.00
51239;BME280;38154;47.548;18.828;2023-03-22T06:23:57;98745.72;;;9.86;100.00
51239;BME280;38154;47.548;18.828;2023-03-22T06:26:23;98750.94;;;9.95;100.00
51239;BME280;38154;47.548;18.828;2023-03-22T06:28:49;98755.28;;;10.03;100.00
51239;BME280;38154;47.548;18.828;2023-03-22T06:31:15;98754.44;;;10.05;100.00
51239;BME280;38154;47.548;18.828;2023-03-22T06:33:41;98759.66;;;10.03;100.00
51239;BME280;38154;47.548;18.828;2023-03-22T06:36:07;98764.88;;;10.17;100.00
51239;BME280;38154;47.548;18.828;2023-03-22T06:38:33;98763.16;;;10.14;100.00
51239;BME280;38154;47.548;18.828;2023-03-22T06:40:59;98773.59;;;10.16;100.00
51239;BME280;38154;47.548;18.828;2023-03-22T06:43:24;98774.41;;;10.09;100.00
51239;BME280;38154;47.548;18.828;2023-03-22T06:45:50;98773.53;;;10.07;100.00
51239;BME280;38154;47.548;18.828;2023-03-22T06:48:16;98778.72;;;10.02;100.00
51239;BME280;38154;47.548;18.828;2023-03-22T06:50:43;98789.19;;;10.10;100.00
51239;BME280;38154;47.548;18.828;2023-03-22T06:53:09;98783.19;;;10.31;100.00
51239;BME280;38154;47.548;18.828;2023-03-22T06:55:35;98784.03;;;10.27;100.00
51239;BME280;38154;47.548;18.828;2023-03-22T06:58:02;98777.09;;;10.24;100.00
51239;BME280;38154;47.548;18.828;2023-03-22T07:00:28;98784.03;;;10.25;100.00
51239;BME280;38154;47.548;18.828;2023-03-22T07:02:54;98784.97;;;10.47;100.00
51239;BME280;38154;47.548;18.828;2023-03-22T07:05:20;98794.56;;;10.68;100.00
51239;BME280;38154;47.548;18.828;2023-03-22T07:07:46;98796.28;;;10.60;100.00
51239;BME280;38154;47.548;18.828;2023-03-22T07:10:12;98788.50;;;10.68;100.00
51239;BME280;38154;47.548;18.828;2023-03-22T07:12:38;98794.56;;;10.62;100.00
51239;BME280;38154;47.548;18.828;2023-03-22T07:15:04;98793.72;;;10.71;100.00
51239;BME280;38154;47.548;18.828;2023-03-22T07:17:30;98789.34;;;10.81;100.00
51239;BME280;38154;47.548;18.828;2023-03-22T07:19:56;98803.28;;;10.76;100.00
51239;BME280;38154;47.548;18.828;2023-03-22T07:22:22;98803.28;;;10.76;100.00
51239;BME280;38154;47.548;18.828;2023-03-22T07:24:54;98804.16;;;10.89;100.00
51239;BME280;38154;47.548;18.828;2023-03-22T07:27:19;98801.53;;;10.97;100.00
51239;BME280;38154;47.548;18.828;2023-03-22T07:29:46;98796.34;;;11.05;100.00
51239;BME280;38154;47.548;18.828;2023-03-22T07:32:12;98797.19;;;10.84;100.00
51239;BME280;38154;47.548;18.828;2023-03-22T07:34:38;98797.19;;;10.99;100.00
51239;BME280;38154;47.548;18.828;2023-03-22T07:37:04;98797.19;;;11.02;100.00
51239;BME280;38154;47.548;18.828;2023-03-22T07:39:30;98804.16;;;10.95;100.00
51239;BME280;38154;47.548;18.828;2023-03-22T07:41:56;98793.72;;;10.95;99.78
51239;BME280;38154;47.548;18.828;2023-03-22T07:44:22;98794.56;;;11.18;98.66
51239;BME280;38154;47.548;18.828;2023-03-22T07:46:48;98787.63;;;11.17;98.99
51239;BME280;38154;47.548;18.828;2023-03-22T07:49:16;98790.22;;;11.07;99.66
51239;BME280;38154;47.548;18.828;2023-03-22T07:51:42;98788.50;;;11.22;99.05
51239;BME280;38154;47.548;18.828;2023-03-22T07:54:08;98793.69;;;11.12;100.00
51239;BME280;38154;47.548;18.828;2023-03-22T07:56:34;98788.50;;;11.28;99.63
51239;BME280;38154;47.548;18.828;2023-03-22T07:59:00;98791.06;;;11.46;99.46
51239;BME280;38154;47.548;18.828;2023-03-22T08:01:26;98789.31;;;11.53;97.39
51239;BME280;38154;47.548;18.828;2023-03-22T08:03:52;98792.72;;;11.77;95.93
51239;BME280;38154;47.548;18.828;2023-03-22T08:06:18;98796.16;;;12.00;94.64
51239;BME280;38154;47.548;18.828;2023-03-22T08:08:46;98799.53;;;12.24;95.58
51239;BME280;38154;47.548;18.828;2023-03-22T08:11:12;98799.44;;;12.41;92.24
51239;BME280;38154;47.548;18.828;2023-03-22T08:13:38;98806.22;;;12.68;91.37
51239;BME280;38154;47.548;18.828;2023-03-22T08:16:05;98803.72;;;12.53;91.13
51239;BME280;38154;47.548;18.828;2023-03-22T08:18:31;98810.63;;;12.63;93.18
51239;BME280;38154;47.548;18.828;2023-03-22T08:20:58;98810.63;;;12.63;91.43
51239;BME280;38154;47.548;18.828;2023-03-22T08:23:25;98821.94;;;12.68;93.20
51239;BME280;38154;47.548;18.828;2023-03-22T08:25:52;98812.28;;;12.75;92.14
51239;BME280;38154;47.548;18.828;2023-03-22T08:28:18;98805.37;;;12.68;91.65
51239;BME280;38154;47.548;18.828;2023-03-22T08:30:46;98802.91;;;12.40;91.87
51239;BME280;38154;47.548;18.828;2023-03-22T08:33:12;98793.34;;;12.40;93.05
51239;BME280;38154;47.548;18.828;2023-03-22T08:35:39;98793.38;;;12.34;92.13
51239;BME280;38154;47.548;18.828;2023-03-22T08:38:05;98796.81;;;12.42;88.29
51239;BME280;38154;47.548;18.828;2023-03-22T08:40:31;98802.97;;;12.35;90.03
51239;BME280;38154;47.548;18.828;2023-03-22T08:42:57;98797.72;;;12.38;91.13
51239;BME280;38154;47.548;18.828;2023-03-22T08:45:23;98800.25;;;12.49;91.38
51239;BME280;38154;47.548;18.828;2023-03-22T08:47:49;98802.78;;;12.61;87.59
51239;BME280;38154;47.548;18.828;2023-03-22T08:50:15;98805.37;;;12.66;88.46
51239;BME280;38154;47.548;18.828;2023-03-22T08:52:41;98811.44;;;12.73;88.01
51239;BME280;38154;47.548;18.828;2023-03-22T08:55:08;98801.84;;;12.73;85.74
51239;BME280;38154;47.548;18.828;2023-03-22T08:57:35;98815.81;;;12.69;86.24
51239;BME280;38154;47.548;18.828;2023-03-22T09:00:03;98817.66;;;12.52;88.18
51239;BME280;38154;47.548;18.828;2023-03-22T09:02:31;98815.84;;;12.63;86.77
51239;BME280;38154;47.548;18.828;2023-03-22T09:04:57;98810.63;;;12.66;85.25
51239;BME280;38154;47.548;18.828;2023-03-22T09:07:23;98814.19;;;12.54;84.87
51239;BME280;38154;47.548;18.828;2023-03-22T09:09:49;98811.59;;;12.48;83.95
51239;BME280;38154;47.548;18.828;2023-03-22T09:12:15;98812.44;;;12.52;86.42
51239;BME280;38154;47.548;18.828;2023-03-22T09:14:41;98812.50;;;12.44;86.14
51239;BME280;38154;47.548;18.828;2023-03-22T09:17:07;98822.94;;;12.50;87.46
51239;BME280;38154;47.548;18.828;2023-03-22T09:19:33;98821.19;;;12.51;87.88
51239;BME280;38154;47.548;18.828;2023-03-22T09:21:59;98815.97;;;12.46;87.04
51239;BME280;38154;47.548;18.828;2023-03-22T09:24:25;98811.66;;;12.36;88.45
51239;BME280;38154;47.548;18.828;2023-03-22T09:26:51;98815.97;;;12.46;87.27
51239;BME280;38154;47.548;18.828;2023-03-22T09:29:17;98814.19;;;12.50;88.72
51239;BME280;38154;47.548;18.828;2023-03-22T09:31:44;98814.25;;;12.43;88.05
51239;BME280;38154;47.548;18.828;2023-03-22T09:34:13;98811.69;;;12.28;87.45
51239;BME280;38154;47.548;18.828;2023-03-22T09:36:40;98810.00;;;12.13;87.99
51239;BME280;38154;47.548;18.828;2023-03-22T09:39:06;98806.63;;;11.94;88.23
51239;BME280;38154;47.548;18.828;2023-03-22T09:41:35;98803.13;;;11.91;87.93
51239;BME280;38154;47.548;18.828;2023-03-22T09:44:06;98806.63;;;11.85;89.76
51239;BME280;38154;47.548;18.828;2023-03-22T09:46:39;98805.78;;;11.74;91.29
51239;BME280;38154;47.548;18.828;2023-03-22T09:49:13;98801.41;;;11.80;91.36
51239;BME280;38154;47.548;18.828;2023-03-22T09:51:50;98803.19;;;11.72;92.12
51239;BME280;38154;47.548;18.828;2023-03-22T09:54:32;98810.13;;;11.82;92.58
51239;BME280;38154;47.548;18.828;2023-03-22T09:57:04;98800.50;;;11.87;90.34
51239;BME280;38154;47.548;18.828;2023-03-22T10:10:22;98800.41;;;12.23;87.75
51239;BME280;38154;47.548;18.828;2023-03-22T10:13:02;98797.66;;;12.44;86.61
51239;BME280;38154;47.548;18.828;2023-03-22T10:15:35;98802.84;;;12.57;86.24
51239;BME280;38154;47.548;18.828;2023-03-22T10:18:05;98800.09;;;12.75;85.29
51239;BME280;38154;47.548;18.828;2023-03-22T10:20:47;98789.53;;;12.89;82.51
51239;BME280;38154;47.548;18.828;2023-03-22T10:23:19;98794.75;;;12.91;83.13
51239;BME280;38154;47.548;18.828;2023-03-22T10:25:49;98793.69;;;13.10;82.56
51239;BME280;38154;47.548;18.828;2023-03-22T10:28:33;98794.47;;;13.20;80.26
51239;BME280;38154;47.548;18.828;2023-03-22T10:31:01;98784.03;;;13.18;78.45
51239;BME280;38154;47.548;18.828;2023-03-22T10:33:30;98788.28;;;13.29;78.48
51239;BME280;38154;47.548;18.828;2023-03-22T10:35:59;98788.13;;;13.49;78.28
51239;BME280;38154;47.548;18.828;2023-03-22T10:38:27;98783.84;;;13.40;79.15
51239;BME280;38154;47.548;18.828;2023-03-22T10:40:57;98786.44;;;13.45;77.51
51239;BME280;38154;47.548;18.828;2023-03-22T10:43:37;98794.13;;;13.60;77.56
51239;BME280;38154;47.548;18.828;2023-03-22T10:46:06;98786.31;;;13.55;78.18
51239;BME280;38154;47.548;18.828;2023-03-22T10:48:40;98784.47;;;13.65;77.32
51239;BME280;38154;47.548;18.828;2023-03-22T10:51:21;98785.16;;;13.83;77.16
51239;BME280;38154;47.548;18.828;2023-03-22T10:53:52;98791.50;;;13.60;77.94
51239;BME280;38154;47.548;18.828;2023-03-22T10:56:19;98789.87;;;13.50;78.56
51239;BME280;38154;47.548;18.828;2023-03-22T10:58:47;98787.06;;;13.67;77.45
51239;BME280;38154;47.548;18.828;2023-03-22T11:01:36;98790.38;;;13.86;76.73
51239;BME280;38154;47.548;18.828;2023-03-22T11:06:29;98788.63;;;13.83;77.10
51239;BME280;38154;47.548;18.828;2023-03-22T11:09:00;98777.84;;;14.09;76.58
51239;BME280;38154;47.548;18.828;2023-03-22T11:11:29;98782.16;;;14.14;74.60
51239;BME280;38154;47.548;18.828;2023-03-22T11:14:18;98781.13;;;14.25;74.20
51239;BME280;38154;47.548;18.828;2023-03-22T11:16:59;98770.41;;;14.41;72.74
51239;BME280;38154;47.548;18.828;2023-03-22T11:19:30;98767.53;;;14.61;71.15
51239;BME280;38154;47.548;18.828;2023-03-22T11:21:58;98768.72;;;14.96;68.88
51239;BME280;38154;47.548;18.828;2023-03-22T11:24:25;98766.25;;;14.87;70.24
51239;BME280;38154;47.548;18.828;2023-03-22T11:27:18;98765.19;;;14.98;68.98
51239;BME280;38154;47.548;18.828;2023-03-22T11:30:16;98757.75;;;15.24;67.78
51239;BME280;38154;47.548;18.828;2023-03-22T11:32:37;98756.50;;;15.43;67.20
51239;BME280;38154;47.548;18.828;2023-03-22T11:35:19;98752.72;;;15.58;65.44
51239;BME280;38154;47.548;18.828;2023-03-22T11:37:53;98744.19;;;15.92;63.77
51239;BME280;38154;47.548;18.828;2023-03-22T11:42:53;98743.56;;;16.21;60.20
51239;BME280;38154;47.548;18.828;2023-03-22T11:45:26;98734.50;;;16.35;58.73
51239;BME280;38154;47.548;18.828;2023-03-22T11:47:53;98736.72;;;16.14;60.67
51239;BME280;38154;47.548;18.828;2023-03-22T11:50:26;98733.66;;;15.92;60.30
51239;BME280;38154;47.548;18.828;2023-03-22T11:52:53;98731.31;;;16.20;58.95
51239;BME280;38154;47.548;18.828;2023-03-22T11:55:19;98733.13;;;16.18;59.24
51239;BME280;38154;47.548;18.828;2023-03-22T11:57:45;98735.37;;;16.33;60.23
51239;BME280;38154;47.548;18.828;2023-03-22T12:00:19;98727.94;;;16.54;60.01
51239;BME280;38154;47.548;18.828;2023-03-22T12:02:49;98729.44;;;16.64;58.02
51239;BME280;38154;47.548;18.828;2023-03-22T12:05:20;98729.78;;;16.86;57.23
51239;BME280;38154;47.548;18.828;2023-03-22T12:07:51;98730.19;;;16.69;57.61
51239;BME280;38154;47.548;18.828;2023-03-22T12:10:32;98733.06;;;16.59;58.14
51239;BME280;38154;47.548;18.828;2023-03-22T12:13:09;98733.25;;;16.88;58.14
51239;BME280;38154;47.548;18.828;2023-03-22T12:15:43;98739.12;;;17.00;57.84
51239;BME280;38154;47.548;18.828;2023-03-22T12:18:29;98733.47;;;16.79;57.54
51239;BME280;38154;47.548;18.828;2023-03-22T12:20:58;98738.78;;;17.12;57.18
51239;BME280;38154;47.548;18.828;2023-03-22T12:23:30;98742.66;;;17.33;56.07
51239;BME280;38154;47.548;18.828;2023-03-22T12:26:20;98738.47;;;17.57;55.09
51239;BME280;38154;47.548;18.828;2023-03-22T12:28:55;98735.09;;;17.52;55.01
51239;BME280;38154;47.548;18.828;2023-03-22T12:31:27;98737.53;;;17.91;53.39
51239;BME280;38154;47.548;18.828;2023-03-22T12:33:58;98738.16;;;17.37;55.21
51239;BME280;38154;47.548;18.828;2023-03-22T12:36:43;98728.81;;;17.25;57.70
51239;BME280;38154;47.548;18.828;2023-03-22T12:39:36;98727.38;;;17.13;56.41
51239;BME280;38154;47.548;18.828;2023-03-22T12:42:35;98722.47;;;16.99;57.20
51239;BME280;38154;47.548;18.828;2023-03-22T12:45:09;98723.50;;;16.92;56.13
51239;BME280;38154;47.548;18.828;2023-03-22T12:47:40;98724.06;;;17.05;56.51
51239;BME280;38154;47.548;18.828;2023-03-22T12:50:28;98721.56;;;16.99;56.25
51239;BME280;38154;47.548;18.828;2023-03-22T12:52:56;98716.16;;;17.05;56.46
51239;BME280;38154;47.548;18.828;2023-03-22T12:55:37;98716.66;;;16.85;55.90
51239;BME280;38154;47.548;18.828;2023-03-22T12:58:05;98711.81;;;17.02;56.04
51239;BME280;38154;47.548;18.828;2023-03-22T13:00:45;98706.28;;;17.13;55.33
51239;BME280;38154;47.548;18.828;2023-03-22T13:05:47;98707.09;;;17.15;55.47
51239;BME280;38154;47.548;18.828;2023-03-22T13:08:22;98700.78;;;17.21;55.17
51239;BME280;38154;47.548;18.828;2023-03-22T13:11:01;98694.22;;;17.04;55.96
51239;BME280;38154;47.548;18.828;2023-03-22T13:23:34;98685.13;;;17.16;55.81
51239;BME280;38154;47.548;18.828;2023-03-22T13:26:02;98678.56;;;16.98;55.92
51239;BME280;38154;47.548;18.828;2023-03-22T13:28:29;98682.37;;;16.86;55.87
51239;BME280;38154;47.548;18.828;2023-03-22T13:31:02;98680.47;;;16.93;55.13
51239;BME280;38154;47.548;18.828;2023-03-22T13:33:31;98680.34;;;16.98;54.71
51239;BME280;38154;47.548;18.828;2023-03-22T13:38:39;98675.56;;;17.12;54.27
51239;BME280;38154;47.548;18.828;2023-03-22T13:41:34;98674.13;;;17.00;55.84
51239;BME280;38154;47.548;18.828;2023-03-22T13:44:02;98673.16;;;16.68;56.34
51239;BME280;38154;47.548;18.828;2023-03-22T13:46:48;98677.09;;;16.50;56.36
51239;BME280;38154;47.548;18.828;2023-03-22T13:51:51;98668.63;;;16.74;57.41
51239;BME280;38154;47.548;18.828;2023-03-22T13:54:20;98664.56;;;16.60;56.58
51239;BME280;38154;47.548;18.828;2023-03-22T13:56:53;98656.88;;;16.53;56.88
51239;BME280;38154;47.548;18.828;2023-03-22T14:04:42;98651.94;;;16.39;57.03
51239;BME280;38154;47.548;18.828;2023-03-22T14:07:21;98655.38;;;16.42;57.27
51239;BME280;38154;47.548;18.828;2023-03-22T14:09:50;98648.06;;;16.54;57.27
51239;BME280;38154;47.548;18.828;2023-03-22T14:14:54;98645.63;;;16.47;57.40
51239;BME280;38154;47.548;18.828;2023-03-22T14:17:37;98641.28;;;16.45;57.02
51239;BME280;38154;47.548;18.828;2023-03-22T14:20:11;98638.03;;;16.33;57.47
51239;BME280;38154;47.548;18.828;2023-03-22T14:22:44;98636.53;;;16.23;58.53